sensor_id;sensor_type;location;lat;lon;timestamp;temperature;humidity
23591;DHT22;11973;52.098;7.582;2023-04-03T03:46:58;1.60;94.30
23591;DHT22;11973;52.098;7.582;2023-04-03T03:49:24;1.50;94.70
23591;DHT22;11973;52.098;7.582;2023-04-03T03:51:50;1.50;94.30
23591;DHT22;11973;52.098;7.582;2023-04-03T03:54:16;1.40;94.30
23591;DHT22;11973;52.098;7.582;2023-04-03T03:56:42;1.40;94.30
23591;DHT22;11973;52.098;7.582;2023-04-03T03:59:11;1.40;94.30
23591;DHT22;11973;52.098;7.582;2023-04-03T04:01:37;1.30;94.30
23591;DHT22;11973;52.098;7.582;2023-04-03T04:04:03;1.30;94.30
23591;DHT22;11973;52.098;7.582;2023-04-03T04:06:30;1.20;94.30
23591;DHT22;11973;52.098;7.582;2023-04-03T04:09:00;1.20;94.40
23591;DHT22;11973;52.098;7.582;2023-04-03T04:11:26;1.20;94.40
23591;DHT22;11973;52.098;7.582;2023-04-03T04:13:54;1.10;94.70
23591;DHT22;11973;52.098;7.582;2023-04-03T04:16:24;1.10;94.40
23591;DHT22;11973;52.098;7.582;2023-04-03T04:18:50;1.10;94.40
23591;DHT22;11973;52.098;7.582;2023-04-03T04:21:17;1.10;94.50
23591;DHT22;11973;52.098;7.582;2023-04-03T04:23:44;1.00;94.40
23591;DHT22;11973;52.098;7.582;2023-04-03T04:26:10;1.00;94.50
23591;DHT22;11973;52.098;7.582;2023-04-03T04:28:37;1.00;94.50
23591;DHT22;11973;52.098;7.582;2023-04-03T04:31:04;0.90;94.50
23591;DHT22;11973;52.098;7.582;2023-04-03T04:33:31;0.90;94.50
23591;DHT22;11973;52.098;7.582;2023-04-03T04:35:59;0.90;94.50
23591;DHT22;11973;52.098;7.582;2023-04-03T04:38:25;0.80;94.50
23591;DHT22;11973;52.098;7.582;2023-04-03T04:40:52;0.80;94.50
23591;DHT22;11973;52.098;7.582;2023-04-03T04:43:19;0.80;94.50
23591;DHT22;11973;52.098;7.582;2023-04-03T04:45:48;0.80;94.50
23591;DHT22;11973;52.098;7.582;2023-04-03T04:48:16;0.70;94.70
23591;DHT22;11973;52.098;7.582;2023-04-03T04:50:44;0.70;94.70
23591;DHT22;11973;52.098;7.582;2023-04-03T04:53:10;0.70;94.80
23591;DHT22;11973;52.098;7.582;2023-04-03T04:55:36;0.70;94.80
23591;DHT22;11973;52.098;7.582;2023-04-03T04:58:02;0.70;94.80
23591;DHT22;11973;52.098;7.582;2023-04-03T05:00:28;0.70;94.90
23591;DHT22;11973;52.098;7.582;2023-04-03T05:02:54;0.70;94.90
23591;DHT22;11973;52.098;7.582;2023-04-03T05:05:20;0.60;95.20
23591;DHT22;11973;52.098;7.582;2023-04-03T05:07:46;0.60;94.90
23591;DHT22;11973;52.098;7.582;2023-04-03T05:10:12;0.60;95.00
23591;DHT22;11973;52.098;7.582;2023-04-03T05:12:38;0.60;95.00
23591;DHT22;11973;52.098;7.582;2023-04-03T05:15:04;0.60;95.00
23591;DHT22;11973;52.098;7.582;2023-04-03T05:17:31;0.60;94.90
23591;DHT22;11973;52.098;7.582;2023-04-03T05:19:58;0.60;95.00
23591;DHT22;11973;52.098;7.582;2023-04-03T05:22:25;0.60;95.10
23591;DHT22;11973;52.098;7.582;2023-04-03T05:24:54;0.50;95.10
23591;DHT22;11973;52.098;7.582;2023-04-03T05:27:21;0.60;95.20
23591;DHT22;11973;52.098;7.582;2023-04-03T05:29:52;0.50;95.20
23591;DHT22;11973;52.098;7.582;2023-04-03T05:32:21;0.60;95.30
23591;DHT22;11973;52.098;7.582;2023-04-03T05:34:53;0.60;95.30
23591;DHT22;11973;52.098;7.582;2023-04-03T05:37:19;0.60;95.30
23591;DHT22;11973;52.098;7.582;2023-04-03T05:39:46;0.60;95.40
23591;DHT22;11973;52.098;7.582;2023-04-03T05:42:12;0.60;95.40
23591;DHT22;11973;52.098;7.582;2023-04-03T05:44:38;0.60;95.40
23591;DHT22;11973;52.098;7.582;2023-04-03T05:47:04;0.60;95.50
23591;DHT22;11973;52.098;7.582;2023-04-03T05:49:31;0.70;95.50
23591;DHT22;11973;52.098;7.582;2023-04-03T05:51:56;0.70;95.50
23591;DHT22;11973;52.098;7.582;2023-04-03T05:54:27;0.70;95.60
23591;DHT22;11973;52.098;7.582;2023-04-03T05:57:00;0.70;95.60
23591;DHT22;11973;52.098;7.582;2023-04-03T05:59:27;0.80;95.70
23591;DHT22;11973;52.098;7.582;2023-04-03T06:01:55;0.80;95.60
23591;DHT22;11973;52.098;7.582;2023-04-03T06:04:21;0.80;95.70
23591;DHT22;11973;52.098;7.582;2023-04-03T06:06:56;0.90;95.80
23591;DHT22;11973;52.098;7.582;2023-04-03T06:09:24;0.90;95.80
23591;DHT22;11973;52.098;7.582;2023-04-03T06:11:50;0.90;95.80
23591;DHT22;11973;52.098;7.582;2023-04-03T06:14:18;1.00;95.90
23591;DHT22;11973;52.098;7.582;2023-04-03T06:16:44;1.00;95.90
23591;DHT22;11973;52.098;7.582;2023-04-03T06:19:11;1.10;95.90
23591;DHT22;11973;52.098;7.582;2023-04-03T06:21:41;1.10;95.90
23591;DHT22;11973;52.098;7.582;2023-04-03T06:24:07;1.20;96.00
23591;DHT22;11973;52.098;7.582;2023-04-03T06:26:34;1.20;95.90
23591;DHT22;11973;52.098;7.582;2023-04-03T06:28:59;1.30;96.30
23591;DHT22;11973;52.098;7.582;2023-04-03T06:31:25;1.40;96.40
23591;DHT22;11973;52.098;7.582;2023-04-03T06:33:51;1.40;96.00
23591;DHT22;11973;52.098;7.582;2023-04-03T06:36:19;1.50;96.00
23591;DHT22;11973;52.098;7.582;2023-04-03T06:38:46;1.50;96.00
23591;DHT22;11973;52.098;7.582;2023-04-03T06:41:12;1.60;96.00
23591;DHT22;11973;52.098;7.582;2023-04-03T06:43:37;1.70;96.00
23591;DHT22;11973;52.098;7.582;2023-04-03T06:46:03;1.70;96.00
23591;DHT22;11973;52.098;7.582;2023-04-03T06:48:29;1.80;96.00
23591;DHT22;11973;52.098;7.582;2023-04-03T06:50:55;1.90;96.10
23591;DHT22;11973;52.098;7.582;2023-04-03T06:53:20;1.90;96.00
23591;DHT22;11973;52.098;7.582;2023-04-03T06:55:47;2.00;96.10
23591;DHT22;11973;52.098;7.582;2023-04-03T06:58:13;2.00;96.00
23591;DHT22;11973;52.098;7.582;2023-04-03T07:00:41;2.10;96.00
23591;DHT22;11973;52.098;7.582;2023-04-03T07:03:06;2.20;96.10
23591;DHT22;11973;52.098;7.582;2023-04-03T07:05:32;2.20;96.00
23591;DHT22;11973;52.098;7.582;2023-04-03T07:07:58;2.30;96.00
23591;DHT22;11973;52.098;7.582;2023-04-03T07:10:24;2.40;96.00
23591;DHT22;11973;52.098;7.582;2023-04-03T07:12:49;2.40;96.00
23591;DHT22;11973;52.098;7.582;2023-04-03T07:15:15;2.40;96.00
23591;DHT22;11973;52.098;7.582;2023-04-03T07:17:41;2.50;96.00
23591;DHT22;11973;52.098;7.582;2023-04-03T07:20:07;2.60;95.90
23591;DHT22;11973;52.098;7.582;2023-04-03T07:22:33;2.60;95.90
23591;DHT22;11973;52.098;7.582;2023-04-03T07:24:59;2.70;95.90
23591;DHT22;11973;52.098;7.582;2023-04-03T07:27:25;2.70;95.90
23591;DHT22;11973;52.098;7.582;2023-04-03T07:29:51;2.80;95.80
23591;DHT22;11973;52.098;7.582;2023-04-03T07:32:17;2.80;95.70
23591;DHT22;11973;52.098;7.582;2023-04-03T07:34:43;2.90;95.70
23591;DHT22;11973;52.098;7.582;2023-04-03T07:37:09;3.00;95.70
23591;DHT22;11973;52.098;7.582;2023-04-03T07:39:35;3.00;95.70
23591;DHT22;11973;52.098;7.582;2023-04-03T07:42:01;3.10;95.70
23591;DHT22;11973;52.098;7.582;2023-04-03T07:44:27;3.10;95.60
23591;DHT22;11973;52.098;7.582;2023-04-03T07:46:53;3.20;95.90
23591;DHT22;11973;52.098;7.582;2023-04-03T07:49:21;3.20;95.90
23591;DHT22;11973;52.098;7.582;2023-04-03T07:51:48;3.30;95.60
23591;DHT22;11973;52.098;7.582;2023-04-03T07:54:14;3.30;95.90
23591;DHT22;11973;52.098;7.582;2023-04-03T07:56:41;3.40;95.60
23591;DHT22;11973;52.098;7.582;2023-04-03T07:59:09;3.40;95.50
23591;DHT22;11973;52.098;7.582;2023-04-03T08:01:34;3.50;95.50
23591;DHT22;11973;52.098;7.582;2023-04-03T08:04:00;3.50;95.30
23591;DHT22;11973;52.098;7.582;2023-04-03T08:06:26;3.60;95.40
23591;DHT22;11973;52.098;7.582;2023-04-03T08:08:54;3.70;95.40
23591;DHT22;11973;52.098;7.582;2023-04-03T08:11:20;3.70;95.30
23591;DHT22;11973;52.098;7.582;2023-04-03T08:13:46;3.70;95.10
23591;DHT22;11973;52.098;7.582;2023-04-03T08:16:16;3.80;95.10
23591;DHT22;11973;52.098;7.582;2023-04-03T08:18:42;3.90;95.00
23591;DHT22;11973;52.098;7.582;2023-04-03T08:21:09;3.90;94.90
23591;DHT22;11973;52.098;7.582;2023-04-03T08:23:36;4.00;94.90
23591;DHT22;11973;52.098;7.582;2023-04-03T08:26:13;4.10;94.90
23591;DHT22;11973;52.098;7.582;2023-04-03T08:28:40;4.10;94.80
23591;DHT22;11973;52.098;7.582;2023-04-03T08:31:08;4.20;94.80
23591;DHT22;11973;52.098;7.582;2023-04-03T08:33:37;4.20;94.70
23591;DHT22;11973;52.098;7.582;2023-04-03T08:36:04;4.30;94.70
23591;DHT22;11973;52.098;7.582;2023-04-03T08:38:31;4.30;94.60
23591;DHT22;11973;52.098;7.582;2023-04-03T08:41:27;4.40;94.40
23591;DHT22;11973;52.098;7.582;2023-04-03T08:49:49;4.60;94.10
23591;DHT22;11973;52.098;7.582;2023-04-03T08:52:36;4.60;94.10
23591;DHT22;11973;52.098;7.582;2023-04-03T08:55:27;4.70;94.00
23591;DHT22;11973;52.098;7.582;2023-04-03T08:58:04;4.80;93.90
23591;DHT22;11973;52.098;7.582;2023-04-03T09:00:38;4.80;94.00
23591;DHT22;11973;52.098;7.582;2023-04-03T09:03:12;4.90;94.00
23591;DHT22;11973;52.098;7.582;2023-04-03T09:08:26;5.00;94.00
23591;DHT22;11973;52.098;7.582;2023-04-03T09:11:16;5.00;93.70
23591;DHT22;11973;52.098;7.582;2023-04-03T09:16:22;5.10;93.60
23591;DHT22;11973;52.098;7.582;2023-04-03T09:21:57;5.30;93.30
23591;DHT22;11973;52.098;7.582;2023-04-03T09:24:23;5.40;93.60
23591;DHT22;11973;52.098;7.582;2023-04-03T09:27:03;5.40;93.50
23591;DHT22;11973;52.098;7.582;2023-04-03T09:29:31;5.50;93.40
23591;DHT22;11973;52.098;7.582;2023-04-03T09:32:02;5.60;93.60
23591;DHT22;11973;52.098;7.582;2023-04-03T09:34:41;5.70;93.50
23591;DHT22;11973;52.098;7.582;2023-04-03T09:37:07;5.80;93.40
23591;DHT22;11973;52.098;7.582;2023-04-03T09:39:52;5.80;93.30
23591;DHT22;11973;52.098;7.582;2023-04-03T09:42:20;5.90;93.00
23591;DHT22;11973;52.098;7.582;2023-04-03T09:45:01;5.90;93.10
23591;DHT22;11973;52.098;7.582;2023-04-03T09:47:34;6.00;92.80
23591;DHT22;11973;52.098;7.582;2023-04-03T09:52:52;6.00;92.60
23591;DHT22;11973;52.098;7.582;2023-04-03T09:55:26;6.10;92.70
23591;DHT22;11973;52.098;7.582;2023-04-03T09:57:58;6.10;92.60
23591;DHT22;11973;52.098;7.582;2023-04-03T10:00:28;6.10;92.60
23591;DHT22;11973;52.098;7.582;2023-04-03T10:02:56;6.20;92.60
23591;DHT22;11973;52.098;7.582;2023-04-03T10:05:32;6.20;92.60
23591;DHT22;11973;52.098;7.582;2023-04-03T10:10:41;6.30;92.60
23591;DHT22;11973;52.098;7.582;2023-04-03T10:13:18;6.40;92.70
23591;DHT22;11973;52.098;7.582;2023-04-03T10:15:51;6.40;92.60
23591;DHT22;11973;52.098;7.582;2023-04-03T10:18:37;6.50;92.70
23591;DHT22;11973;52.098;7.582;2023-04-03T10:21:19;6.60;92.60
23591;DHT22;11973;52.098;7.582;2023-04-03T10:24:28;6.60;92.60
23591;DHT22;11973;52.098;7.582;2023-04-03T10:27:18;6.70;92.40
23591;DHT22;11973;52.098;7.582;2023-04-03T10:35:37;6.80;92.30
23591;DHT22;11973;52.098;7.582;2023-04-03T10:40:59;6.90;92.20
23591;DHT22;11973;52.098;7.582;2023-04-03T10:46:41;7.00;92.10
23591;DHT22;11973;52.098;7.582;2023-04-03T10:49:19;7.10;92.10
23591;DHT22;11973;52.098;7.582;2023-04-03T10:52:29;7.10;92.40
23591;DHT22;11973;52.098;7.582;2023-04-03T10:54:40;7.10;92.30
23591;DHT22;11973;52.098;7.582;2023-04-03T10:57:09;7.20;92.40
23591;DHT22;11973;52.098;7.582;2023-04-03T10:59:45;7.30;92.40
23591;DHT22;11973;52.098;7.582;2023-04-03T11:02:23;7.30;92.20
23591;DHT22;11973;52.098;7.582;2023-04-03T11:04:53;7.30;92.20
23591;DHT22;11973;52.098;7.582;2023-04-03T11:07:22;7.30;92.20
23591;DHT22;11973;52.098;7.582;2023-04-03T11:09:52;7.40;92.20
23591;DHT22;11973;52.098;7.582;2023-04-03T11:12:42;7.40;92.20
23591;DHT22;11973;52.098;7.582;2023-04-03T11:15:17;7.40;92.10
23591;DHT22;11973;52.098;7.582;2023-04-03T11:17:55;7.50;92.00
23591;DHT22;11973;52.098;7.582;2023-04-03T11:20:28;7.50;92.00
23591;DHT22;11973;52.098;7.582;2023-04-03T11:23:23;7.60;92.00
23591;DHT22;11973;52.098;7.582;2023-04-03T11:25:53;7.60;91.80
23591;DHT22;11973;52.098;7.582;2023-04-03T11:28:19;7.60;92.00
23591;DHT22;11973;52.098;7.582;2023-04-03T11:34:14;7.70;91.90
23591;DHT22;11973;52.098;7.582;2023-04-03T11:36:47;7.80;91.70
23591;DHT22;11973;52.098;7.582;2023-04-03T11:39:36;7.80;91.90
23591;DHT22;11973;52.098;7.582;2023-04-03T11:42:55;7.80;91.60
23591;DHT22;11973;52.098;7.582;2023-04-03T11:50:46;7.90;91.70
23591;DHT22;11973;52.098;7.582;2023-04-03T11:55:51;8.20;92.00
23591;DHT22;11973;52.098;7.582;2023-04-03T11:58:25;8.40;91.80
23591;DHT22;11973;52.098;7.582;2023-04-03T12:08:55;8.90;91.40
23591;DHT22;11973;52.098;7.582;2023-04-03T12:11:31;8.90;91.30
23591;DHT22;11973;52.098;7.582;2023-04-03T12:16:49;8.80;91.30
23591;DHT22;11973;52.098;7.582;2023-04-03T12:19:39;8.80;91.00
23591;DHT22;11973;52.098;7.582;2023-04-03T12:22:17;8.90;91.00
23591;DHT22;11973;52.098;7.582;2023-04-03T12:24:49;8.90;91.10
23591;DHT22;11973;52.098;7.582;2023-04-03T12:30:34;9.00;91.40
23591;DHT22;11973;52.098;7.582;2023-04-03T12:33:05;9.20;91.30
23591;DHT22;11973;52.098;7.582;2023-04-03T17:21:41;15.20;85.70
23591;DHT22;11973;52.098;7.582;2023-04-03T17:24:07;14.80;86.80
23591;DHT22;11973;52.098;7.582;2023-04-03T17:26:34;14.60;86.60
23591;DHT22;11973;52.098;7.582;2023-04-03T17:29:02;14.40;84.70
23591;DHT22;11973;52.098;7.582;2023-04-03T17:31:28;14.00;83.70
23591;DHT22;11973;52.098;7.582;2023-04-03T17:33:54;13.60;83.00
23591;DHT22;11973;52.098;7.582;2023-04-03T17:36:20;13.20;82.20
23591;DHT22;11973;52.098;7.582;2023-04-03T17:38:46;12.90;82.00
23591;DHT22;11973;52.098;7.582;2023-04-03T17:41:13;12.50;81.20
23591;DHT22;11973;52.098;7.582;2023-04-03T17:43:39;12.20;80.80
23591;DHT22;11973;52.098;7.582;2023-04-03T17:46:07;11.90;80.30
23591;DHT22;11973;52.098;7.582;2023-04-03T17:48:35;11.60;80.00
23591;DHT22;11973;52.098;7.582;2023-04-03T17:51:05;11.30;79.30
23591;DHT22;11973;52.098;7.582;2023-04-03T17:53:32;11.10;79.10
23591;DHT22;11973;52.098;7.582;2023-04-03T17:55:57;10.80;78.70
23591;DHT22;11973;52.098;7.582;2023-04-03T17:58:23;10.60;78.50
23591;DHT22;11973;52.098;7.582;2023-04-03T18:00:49;10.30;78.00
23591;DHT22;11973;52.098;7.582;2023-04-03T18:03:14;10.10;77.80
23591;DHT22;11973;52.098;7.582;2023-04-03T18:05:40;10.00;77.70
23591;DHT22;11973;52.098;7.582;2023-04-03T18:08:06;9.80;78.20
23591;DHT22;11973;52.098;7.582;2023-04-03T18:10:35;9.60;78.00
23591;DHT22;11973;52.098;7.582;2023-04-03T18:13:01;9.50;77.90
23591;DHT22;11973;52.098;7.582;2023-04-03T18:15:26;9.30;77.60
23591;DHT22;11973;52.098;7.582;2023-04-03T18:17:52;9.10;77.60
23591;DHT22;11973;52.098;7.582;2023-04-03T18:20:22;9.00;77.30
23591;DHT22;11973;52.098;7.582;2023-04-03T18:22:48;9.00;77.30
23591;DHT22;11973;52.098;7.582;2023-04-03T18:25:15;8.70;77.30
23591;DHT22;11973;52.098;7.582;2023-04-03T18:27:43;8.60;77.40
23591;DHT22;11973;52.098;7.582;2023-04-03T18:30:11;8.50;77.50
23591;DHT22;11973;52.098;7.582;2023-04-03T18:32:38;8.40;77.50
23591;DHT22;11973;52.098;7.582;2023-04-03T18:35:05;8.30;77.60
23591;DHT22;11973;52.098;7.582;2023-04-03T18:37:31;8.20;77.50
23591;DHT22;11973;52.098;7.582;2023-04-03T18:39:57;8.20;77.70
23591;DHT22;11973;52.098;7.582;2023-04-03T18:42:24;8.20;78.00
23591;DHT22;11973;52.098;7.582;2023-04-03T18:44:56;7.90;77.60
23591;DHT22;11973;52.098;7.582;2023-04-03T18:47:23;7.90;77.70
23591;DHT22;11973;52.098;7.582;2023-04-03T18:49:49;7.80;77.60
23591;DHT22;11973;52.098;7.582;2023-04-03T18:52:15;7.70;77.50
23591;DHT22;11973;52.098;7.582;2023-04-03T18:54:41;7.60;77.70
23591;DHT22;11973;52.098;7.582;2023-04-03T18:57:07;7.60;77.80
23591;DHT22;11973;52.098;7.582;2023-04-03T18:59:33;7.40;77.60
23591;DHT22;11973;52.098;7.582;2023-04-03T19:01:59;7.40;77.70
23591;DHT22;11973;52.098;7.582;2023-04-03T19:04:26;7.30;78.50
23591;DHT22;11973;52.098;7.582;2023-04-03T19:06:52;7.20;78.40
23591;DHT22;11973;52.098;7.582;2023-04-03T19:09:18;7.20;77.70
23591;DHT22;11973;52.098;7.582;2023-04-03T19:11:44;7.10;77.50
23591;DHT22;11973;52.098;7.582;2023-04-03T19:14:13;7.00;77.60
23591;DHT22;11973;52.098;7.582;2023-04-03T19:16:38;7.00;77.60
23591;DHT22;11973;52.098;7.582;2023-04-03T19:19:05;6.90;77.70
23591;DHT22;11973;52.098;7.582;2023-04-03T19:21:31;6.80;77.70
23591;DHT22;11973;52.098;7.582;2023-04-03T19:23:57;6.80;77.60
23591;DHT22;11973;52.098;7.582;2023-04-03T19:26:24;6.70;77.60
23591;DHT22;11973;52.098;7.582;2023-04-03T19:28:50;6.60;78.40
23591;DHT22;11973;52.098;7.582;2023-04-03T19:31:18;6.60;77.70
23591;DHT22;11973;52.098;7.582;2023-04-03T19:33:48;6.50;78.40
23591;DHT22;11973;52.098;7.582;2023-04-03T19:36:15;6.50;77.80
23591;DHT22;11973;52.098;7.582;2023-04-03T19:38:41;6.40;77.80
23591;DHT22;11973;52.098;7.582;2023-04-03T19:41:13;6.40;77.80
23591;DHT22;11973;52.098;7.582;2023-04-03T19:43:40;6.30;77.80
23591;DHT22;11973;52.098;7.582;2023-04-03T19:46:07;6.30;78.00
23591;DHT22;11973;52.098;7.582;2023-04-03T19:48:33;6.30;78.00
23591;DHT22;11973;52.098;7.582;2023-04-03T19:50:59;6.20;78.00
23591;DHT22;11973;52.098;7.582;2023-04-03T19:53:25;6.10;78.10
23591;DHT22;11973;52.098;7.582;2023-04-03T19:55:54;6.10;78.10
23591;DHT22;11973;52.098;7.582;2023-04-03T19:58:22;6.00;78.10
23591;DHT22;11973;52.098;7.582;2023-04-03T20:00:48;6.00;78.30
23591;DHT22;11973;52.098;7.582;2023-04-03T20:03:14;6.00;78.40
23591;DHT22;11973;52.098;7.582;2023-04-03T20:05:40;5.90;78.30
23591;DHT22;11973;52.098;7.582;2023-04-03T20:08:06;5.80;78.30
23591;DHT22;11973;52.098;7.582;2023-04-03T20:10:32;5.80;78.40
23591;DHT22;11973;52.098;7.582;2023-04-03T20:12:59;5.80;79.30
23591;DHT22;11973;52.098;7.582;2023-04-03T20:15:25;5.70;78.40
23591;DHT22;11973;52.098;7.582;2023-04-03T20:17:51;5.70;78.60
23591;DHT22;11973;52.098;7.582;2023-04-03T20:20:19;5.60;78.80
23591;DHT22;11973;52.098;7.582;2023-04-03T20:22:44;5.60;78.90
23591;DHT22;11973;52.098;7.582;2023-04-03T20:25:11;5.50;78.90
23591;DHT22;11973;52.098;7.582;2023-04-03T20:27:37;5.50;79.10
23591;DHT22;11973;52.098;7.582;2023-04-03T20:30:07;5.40;79.20
23591;DHT22;11973;52.098;7.582;2023-04-03T20:32:35;5.40;79.40
23591;DHT22;11973;52.098;7.582;2023-04-03T20:35:01;5.30;79.30
23591;DHT22;11973;52.098;7.582;2023-04-03T20:37:27;5.30;79.50
23591;DHT22;11973;52.098;7.582;2023-04-03T20:39:52;5.20;79.50
23591;DHT22;11973;52.098;7.582;2023-04-03T20:42:18;5.20;79.60
23591;DHT22;11973;52.098;7.582;2023-04-03T20:44:44;5.20;79.70
23591;DHT22;11973;52.098;7.582;2023-04-03T20:47:11;5.10;79.70
23591;DHT22;11973;52.098;7.582;2023-04-03T20:49:38;5.00;79.80
23591;DHT22;11973;52.098;7.582;2023-04-03T20:52:04;5.00;79.90
23591;DHT22;11973;52.098;7.582;2023-04-03T20:54:31;5.00;80.00
23591;DHT22;11973;52.098;7.582;2023-04-03T20:56:57;4.90;80.00
23591;DHT22;11973;52.098;7.582;2023-04-03T20:59:23;4.90;80.10
23591;DHT22;11973;52.098;7.582;2023-04-03T21:01:49;4.90;80.00
23591;DHT22;11973;52.098;7.582;2023-04-03T21:04:28;4.80;80.00
23591;DHT22;11973;52.098;7.582;2023-04-03T21:21:04;4.60;80.60
23591;DHT22;11973;52.098;7.582;2023-04-03T21:23:30;4.50;80.60
23591;DHT22;11973;52.098;7.582;2023-04-03T21:25:57;4.50;80.70
23591;DHT22;11973;52.098;7.582;2023-04-03T21:28:26;4.50;80.80
23591;DHT22;11973;52.098;7.582;2023-04-03T21:30:52;4.40;80.70
23591;DHT22;11973;52.098;7.582;2023-04-03T21:33:18;4.40;80.70
23591;DHT22;11973;52.098;7.582;2023-04-03T21:35:43;4.40;80.70
23591;DHT22;11973;52.098;7.582;2023-04-03T21:38:09;4.30;80.70
23591;DHT22;11973;52.098;7.582;2023-04-03T21:40:35;4.30;81.00
23591;DHT22;11973;52.098;7.582;2023-04-03T21:43:01;4.30;81.00
23591;DHT22;11973;52.098;7.582;2023-04-03T21:45:27;4.20;81.00
23591;DHT22;11973;52.098;7.582;2023-04-03T21:47:54;4.20;81.00
23591;DHT22;11973;52.098;7.582;2023-04-03T21:50:19;4.20;81.20
23591;DHT22;11973;52.098;7.582;2023-04-03T21:52:45;4.10;81.10
23591;DHT22;11973;52.098;7.582;2023-04-03T21:55:11;4.20;81.30
23591;DHT22;11973;52.098;7.582;2023-04-03T21:57:39;4.10;81.30
23591;DHT22;11973;52.098;7.582;2023-04-03T22:00:06;4.10;81.40
23591;DHT22;11973;52.098;7.582;2023-04-03T22:02:38;4.00;81.30
23591;DHT22;11973;52.098;7.582;2023-04-03T22:05:05;4.00;81.50
23591;DHT22;11973;52.098;7.582;2023-04-03T22:07:31;4.00;81.50
23591;DHT22;11973;52.098;7.582;2023-04-03T22:09:57;3.90;81.50
23591;DHT22;11973;52.098;7.582;2023-04-03T22:12:23;3.90;81.60
23591;DHT22;11973;52.098;7.582;2023-04-03T22:14:49;3.90;81.80
23591;DHT22;11973;52.098;7.582;2023-04-03T22:17:14;3.80;81.90
23591;DHT22;11973;52.098;7.582;2023-04-03T22:19:41;3.80;82.00
23591;DHT22;11973;52.098;7.582;2023-04-03T22:22:07;3.80;82.10
23591;DHT22;11973;52.098;7.582;2023-04-03T22:24:33;3.70;82.20
23591;DHT22;11973;52.098;7.582;2023-04-03T22:26:59;3.70;82.30
23591;DHT22;11973;52.098;7.582;2023-04-03T22:29:24;3.70;82.30
23591;DHT22;11973;52.098;7.582;2023-04-03T22:31:51;3.60;82.40
23591;DHT22;11973;52.098;7.582;2023-04-03T22:34:17;3.60;82.40
23591;DHT22;11973;52.098;7.582;2023-04-03T22:36:44;3.50;82.30
23591;DHT22;11973;52.098;7.582;2023-04-03T22:39:09;3.50;82.50
23591;DHT22;11973;52.098;7.582;2023-04-03T22:41:36;3.50;82.50
23591;DHT22;11973;52.098;7.582;2023-04-03T22:44:03;3.40;83.40
23591;DHT22;11973;52.098;7.582;2023-04-03T22:46:28;3.40;82.80
23591;DHT22;11973;52.098;7.582;2023-04-03T22:48:54;3.40;82.90
23591;DHT22;11973;52.098;7.582;2023-04-03T22:51:20;3.30;82.90
23591;DHT22;11973;52.098;7.582;2023-04-03T22:53:45;3.30;82.90
23591;DHT22;11973;52.098;7.582;2023-04-03T22:56:11;3.30;83.00
23591;DHT22;11973;52.098;7.582;2023-04-03T22:58:38;3.20;83.00
